createdAt,value
2017-02-08T00:00:00.706Z,0
2017-02-08T00:01:13.391Z,0
2017-02-08T00:02:26.644Z,0
2017-02-08T00:03:39.893Z,0
2017-02-08T00:04:53.141Z,0
2017-02-08T00:06:06.389Z,0
2017-02-08T00:07:19.067Z,0
2017-02-08T00:08:32.313Z,0
2017-02-08T00:09:44.994Z,0
2017-02-08T00:10:58.243Z,0
2017-02-08T00:12:10.361Z,0
2017-02-08T00:13:23.619Z,0
2017-02-08T00:14:36.300Z,0
2017-02-08T00:15:49.754Z,0
2017-02-08T00:17:03.003Z,0
2017-02-08T00:18:16.251Z,0
2017-02-08T00:19:29.497Z,0
2017-02-08T00:20:42.743Z,0
2017-02-08T00:21:56.188Z,0
2017-02-08T00:23:09.442Z,0
2017-02-08T00:24:22.693Z,0
2017-02-08T00:25:35.938Z,0
2017-02-08T00:26:49.387Z,0
2017-02-08T00:28:02.635Z,0
2017-02-08T00:29:15.888Z,0
2017-02-08T00:30:28.566Z,0
2017-02-08T00:31:41.817Z,0
2017-02-08T00:32:55.270Z,0
2017-02-08T00:34:07.950Z,0
2017-02-08T00:35:20.628Z,0
2017-02-08T00:36:33.307Z,0
2017-02-08T00:37:46.557Z,0
2017-02-08T00:38:59.807Z,0
2017-02-08T00:40:13.058Z,0
2017-02-08T00:41:26.308Z,0
2017-02-08T00:42:39.557Z,0
2017-02-08T00:43:53.003Z,0
2017-02-08T00:45:06.251Z,0
2017-02-08T00:46:19.500Z,0
2017-02-08T00:47:32.750Z,0
2017-02-08T00:48:46.200Z,0
2017-02-08T00:49:59.447Z,0
2017-02-08T00:51:12.692Z,0
2017-02-08T00:52:25.944Z,0
2017-02-08T00:53:39.193Z,0
2017-02-08T00:54:52.443Z,0
2017-02-08T00:56:05.695Z,0
2017-02-08T00:57:18.944Z,0
2017-02-08T00:58:32.197Z,0
2017-02-08T00:59:45.077Z,0
2017-02-08T01:00:58.322Z,0
2017-02-08T01:02:11.570Z,0
2017-02-08T01:03:24.816Z,0
2017-02-08T01:04:38.071Z,0
2017-02-08T01:05:51.321Z,0
2017-02-08T01:07:04.568Z,0
2017-02-08T01:08:17.247Z,0
2017-02-08T01:09:30.501Z,0
2017-02-08T01:10:43.951Z,0
2017-02-08T01:11:57.211Z,0
2017-02-08T01:13:09.892Z,0
2017-02-08T01:14:23.141Z,0
2017-02-08T01:15:36.399Z,0
2017-02-08T01:16:49.848Z,0
2017-02-08T01:18:03.104Z,0
2017-02-08T01:19:16.390Z,0
2017-02-08T01:20:29.647Z,0
2017-02-08T01:21:43.099Z,0
2017-02-08T01:22:56.353Z,0
2017-02-08T01:24:09.640Z,0
2017-02-08T01:25:22.957Z,0
2017-02-08T01:26:36.232Z,0
2017-02-08T01:27:49.728Z,0
2017-02-08T01:29:16.992Z,0
2017-02-08T01:30:29.717Z,0
2017-02-08T01:31:42.984Z,0
2017-02-08T01:32:55.870Z,0
2017-02-08T01:34:09.197Z,0
2017-02-08T01:35:22.473Z,0
2017-02-08T01:36:35.725Z,0
2017-02-08T01:37:49.282Z,0
2017-02-08T01:39:02.538Z,0
2017-02-08T01:40:15.801Z,0
2017-02-08T01:41:29.055Z,0
2017-02-08T01:42:41.755Z,0
2017-02-08T01:43:54.685Z,0
2017-02-08T01:45:07.980Z,0
2017-02-08T01:46:20.682Z,0
2017-02-08T01:47:33.939Z,0
2017-02-08T01:48:46.820Z,0
2017-02-08T01:50:00.086Z,0
2017-02-08T01:51:26.790Z,0
2017-02-08T01:52:40.256Z,0
2017-02-08T01:53:53.175Z,0
2017-02-08T01:55:06.427Z,0
2017-02-08T01:56:19.677Z,0
2017-02-08T01:57:31.787Z,0
2017-02-08T01:58:45.035Z,0
2017-02-08T02:00:12.265Z,0
2017-02-08T02:01:25.516Z,0
2017-02-08T02:02:38.767Z,0
2017-02-08T02:04:05.997Z,0
2017-02-08T02:05:18.675Z,0
2017-02-08T02:06:31.923Z,0
2017-02-08T02:07:45.169Z,0
2017-02-08T02:08:58.417Z,0
2017-02-08T02:10:11.670Z,0
2017-02-08T02:11:24.350Z,0
2017-02-08T02:12:37.598Z,0
2017-02-08T02:13:50.845Z,0
2017-02-08T02:15:04.099Z,0
2017-02-08T02:16:16.779Z,0
2017-02-08T02:17:29.604Z,0
2017-02-08T02:18:43.032Z,0
2017-02-08T02:20:10.391Z,0
2017-02-08T02:21:23.165Z,0
2017-02-08T02:22:36.275Z,0
2017-02-08T02:23:49.384Z,0
2017-02-08T02:25:02.494Z,0
2017-02-08T02:26:15.911Z,0
2017-02-08T02:27:29.023Z,0
2017-02-08T02:28:42.130Z,0
2017-02-08T02:29:54.687Z,0
2017-02-08T02:32:35.118Z,0
2017-02-08T02:33:48.229Z,0
2017-02-08T02:35:01.341Z,0
2017-02-08T02:36:14.451Z,0
2017-02-08T02:37:27.564Z,0
2017-02-08T02:38:40.671Z,0
2017-02-08T02:39:53.788Z,0
2017-02-08T02:41:06.900Z,0
2017-02-08T02:42:20.007Z,0
2017-02-08T02:43:47.129Z,0
2017-02-08T02:45:00.237Z,0
2017-02-08T02:46:13.349Z,0
2017-02-08T02:47:26.461Z,0
2017-02-08T02:48:53.581Z,0
2017-02-08T02:50:06.693Z,0
2017-02-08T02:52:46.924Z,0
2017-02-08T02:53:59.474Z,0
2017-02-08T02:55:12.585Z,0
2017-02-08T02:56:39.704Z,0
2017-02-08T02:57:52.813Z,0
2017-02-08T02:59:05.921Z,0
2017-02-08T03:00:17.917Z,0
2017-02-08T03:01:30.468Z,0
2017-02-08T03:02:57.589Z,0
2017-02-08T03:04:10.140Z,0
2017-02-08T03:05:23.378Z,0
2017-02-08T03:06:35.511Z,0
2017-02-08T03:07:48.756Z,0
2017-02-08T03:09:02.205Z,0
2017-02-08T03:10:15.452Z,0
2017-02-08T03:11:28.699Z,0
2017-02-08T03:12:41.947Z,0
2017-02-08T03:13:55.199Z,0
2017-02-08T03:15:08.647Z,0
2017-02-08T03:16:21.330Z,0
2017-02-08T03:17:34.581Z,0
2017-02-08T03:18:47.832Z,0
2017-02-08T03:20:01.078Z,0
2017-02-08T03:21:13.758Z,0
2017-02-08T03:22:26.440Z,0
2017-02-08T03:23:39.688Z,0
2017-02-08T03:24:52.941Z,0
2017-02-08T03:26:06.389Z,0
2017-02-08T03:27:19.636Z,0
2017-02-08T03:28:46.865Z,0
2017-02-08T03:30:00.112Z,0
2017-02-08T03:31:13.557Z,0
2017-02-08T03:32:26.804Z,0
2017-02-08T03:33:40.057Z,0
2017-02-08T03:34:53.300Z,0
2017-02-08T03:36:06.847Z,0
2017-02-08T03:37:20.097Z,0
2017-02-08T03:38:32.779Z,0
2017-02-08T03:39:46.023Z,0
2017-02-08T03:40:59.268Z,0
2017-02-08T03:42:12.151Z,0
2017-02-08T03:43:25.396Z,0
2017-02-08T03:44:38.076Z,0
2017-02-08T03:45:51.325Z,0
2017-02-08T03:47:04.576Z,0
2017-02-08T03:48:17.252Z,0
2017-02-08T03:49:30.497Z,0
2017-02-08T03:50:43.747Z,0
2017-02-08T03:51:56.995Z,0
2017-02-08T03:53:10.443Z,0
2017-02-08T03:54:23.691Z,0
2017-02-08T03:55:36.941Z,0
2017-02-08T03:56:50.185Z,0
2017-02-08T03:58:03.631Z,0
2017-02-08T03:59:16.886Z,0
2017-02-08T04:00:30.131Z,0
2017-02-08T04:01:43.377Z,0
2017-02-08T04:02:56.625Z,0
2017-02-08T04:04:09.508Z,0
2017-02-08T04:05:22.756Z,0
2017-02-08T04:06:35.436Z,0
2017-02-08T04:08:02.665Z,0
2017-02-08T04:09:16.108Z,0
2017-02-08T04:10:29.360Z,0
2017-02-08T04:11:42.042Z,0
2017-02-08T04:12:55.289Z,0
2017-02-08T04:14:08.536Z,0
2017-02-08T04:15:21.782Z,0
2017-02-08T04:16:35.030Z,0
2017-02-08T04:17:48.278Z,0
2017-02-08T04:19:01.529Z,0
2017-02-08T04:20:14.778Z,0
2017-02-08T04:21:28.024Z,0
2017-02-08T04:22:40.702Z,0
2017-02-08T04:23:53.951Z,0
2017-02-08T04:25:07.399Z,0
2017-02-08T04:26:20.642Z,0
2017-02-08T04:27:33.891Z,0
2017-02-08T04:28:47.138Z,0
2017-02-08T04:30:14.370Z,0
2017-02-08T04:31:27.627Z,0
2017-02-08T04:32:40.874Z,0
2017-02-08T04:33:54.121Z,0
2017-02-08T04:35:07.372Z,0
2017-02-08T04:36:20.919Z,0
2017-02-08T04:37:33.599Z,0
2017-02-08T04:38:46.846Z,0
2017-02-08T04:40:00.091Z,0
2017-02-08T04:41:13.543Z,0
2017-02-08T04:42:26.793Z,0
2017-02-08T04:43:40.043Z,0
2017-02-08T04:44:53.290Z,0
2017-02-08T04:46:34.502Z,0
2017-02-08T04:47:47.755Z,0
2017-02-08T04:49:01.039Z,0
2017-02-08T04:50:14.288Z,0
2017-02-08T04:51:27.536Z,0
2017-02-08T04:52:40.818Z,0
2017-02-08T04:53:54.066Z,0
2017-02-08T04:55:07.313Z,0
2017-02-08T04:56:20.858Z,0
2017-02-08T04:57:33.537Z,0
2017-02-08T04:58:46.781Z,0
2017-02-08T05:00:00.026Z,0
2017-02-08T05:01:13.272Z,0
2017-02-08T05:02:26.553Z,0
2017-02-08T05:03:39.229Z,0
2017-02-08T05:04:52.478Z,0
2017-02-08T05:06:05.722Z,0
2017-02-08T05:07:19.267Z,0
2017-02-08T05:08:32.515Z,0
2017-02-08T05:09:45.195Z,0
2017-02-08T05:10:58.443Z,0
2017-02-08T05:12:11.688Z,0
2017-02-08T05:13:25.139Z,0
2017-02-08T05:14:38.383Z,0
2017-02-08T05:15:51.628Z,0
2017-02-08T05:17:04.872Z,0
2017-02-08T05:18:17.551Z,0
2017-02-08T05:19:30.800Z,0
2017-02-08T05:20:43.917Z,0
2017-02-08T05:21:57.028Z,0
2017-02-08T05:23:10.136Z,0
2017-02-08T05:24:23.548Z,0
2017-02-08T05:25:36.657Z,0
2017-02-08T05:26:49.765Z,0
2017-02-08T05:28:02.872Z,0
2017-02-08T05:29:16.181Z,0
2017-02-08T05:30:29.288Z,0
2017-02-08T05:31:42.397Z,0
2017-02-08T05:32:55.506Z,0
2017-02-08T05:34:08.616Z,0
2017-02-08T05:35:21.365Z,0
2017-02-08T05:36:33.915Z,0
2017-02-08T05:37:46.466Z,0
2017-02-08T05:38:59.577Z,0
2017-02-08T05:40:12.693Z,0
2017-02-08T05:41:25.800Z,0
2017-02-08T05:42:38.908Z,0
2017-02-08T05:43:52.024Z,0
2017-02-08T05:45:05.136Z,0
2017-02-08T05:46:18.250Z,0
2017-02-08T05:47:31.362Z,0
2017-02-08T05:48:58.479Z,0
2017-02-08T05:50:11.590Z,0
2017-02-08T05:51:24.345Z,0
2017-02-08T05:52:37.451Z,0
2017-02-08T05:53:50.560Z,0
2017-02-08T05:55:03.668Z,0
2017-02-08T05:56:16.220Z,0
2017-02-08T05:57:29.328Z,0
2017-02-08T05:58:42.437Z,0
2017-02-08T05:59:55.548Z,0
2017-02-08T06:01:08.656Z,0
2017-02-08T06:02:21.768Z,0
2017-02-08T06:03:34.881Z,0
2017-02-08T06:04:47.429Z,0
2017-02-08T06:06:00.540Z,0
2017-02-08T06:07:13.847Z,0
2017-02-08T06:08:26.994Z,0
2017-02-08T06:09:40.102Z,0
2017-02-08T06:10:53.209Z,0
2017-02-08T06:12:06.319Z,0
2017-02-08T06:13:19.070Z,0
2017-02-08T06:14:32.180Z,0
2017-02-08T06:15:45.296Z,0
2017-02-08T06:16:58.404Z,0
2017-02-08T06:18:11.713Z,0
2017-02-08T06:19:24.824Z,0
2017-02-08T06:20:37.936Z,0
2017-02-08T06:21:51.048Z,0
2017-02-08T06:23:04.161Z,0
2017-02-08T06:24:16.911Z,0
2017-02-08T06:25:30.023Z,0
2017-02-08T06:26:42.574Z,0
2017-02-08T06:27:55.687Z,0
2017-02-08T06:29:08.993Z,0
2017-02-08T06:30:21.544Z,0
2017-02-08T06:31:34.651Z,0
2017-02-08T06:32:47.759Z,0
2017-02-08T06:34:00.870Z,0
2017-02-08T06:35:13.621Z,0
2017-02-08T06:36:26.730Z,0
2017-02-08T06:37:39.857Z,0
2017-02-08T06:38:52.965Z,0
2017-02-08T06:40:06.371Z,0
2017-02-08T06:41:18.367Z,0
2017-02-08T06:42:31.473Z,0
2017-02-08T06:43:44.580Z,0
2017-02-08T06:44:57.689Z,0
2017-02-08T06:46:10.238Z,0
2017-02-08T06:47:23.347Z,0
2017-02-08T06:48:36.455Z,0
2017-02-08T06:49:49.016Z,0
2017-02-08T06:51:02.125Z,0
2017-02-08T06:52:29.243Z,0
2017-02-08T06:53:42.355Z,0
2017-02-08T06:54:55.462Z,0
2017-02-08T06:56:08.870Z,0
2017-02-08T06:57:21.419Z,0
2017-02-08T06:58:34.529Z,0
2017-02-08T06:59:47.076Z,0
2017-02-08T07:01:00.187Z,0
2017-02-08T07:02:13.595Z,0
2017-02-08T07:03:26.703Z,0
2017-02-08T07:04:39.813Z,0
2017-02-08T07:05:52.917Z,0
2017-02-08T07:07:06.036Z,0
2017-02-08T07:08:19.150Z,0
2017-02-08T07:09:32.258Z,0
2017-02-08T07:10:45.403Z,0
2017-02-08T07:11:58.512Z,0
2017-02-08T07:13:11.623Z,0
2017-02-08T07:14:24.207Z,0
2017-02-08T07:15:37.314Z,0
2017-02-08T07:16:50.423Z,0
2017-02-08T07:18:03.768Z,0
2017-02-08T07:19:16.885Z,0
2017-02-08T07:20:29.994Z,0
2017-02-08T07:21:43.104Z,0
2017-02-08T07:22:56.214Z,0
2017-02-08T07:24:09.324Z,0
2017-02-08T07:25:22.436Z,0
2017-02-08T07:26:35.544Z,0
2017-02-08T07:27:48.651Z,0
2017-02-08T07:29:02.059Z,0
2017-02-08T07:30:14.608Z,0
2017-02-08T07:31:27.716Z,0
2017-02-08T07:32:40.825Z,0
2017-02-08T07:33:53.938Z,0
2017-02-08T07:35:07.249Z,0
2017-02-08T07:36:20.358Z,0
2017-02-08T07:37:33.469Z,0
2017-02-08T07:38:46.576Z,0
2017-02-08T07:39:59.986Z,0
2017-02-08T07:41:13.095Z,0
2017-02-08T07:42:26.206Z,0
2017-02-08T07:43:53.324Z,0
2017-02-08T07:45:06.732Z,0
2017-02-08T07:46:19.840Z,0
2017-02-08T07:47:32.948Z,0
2017-02-08T07:48:46.056Z,0
2017-02-08T07:49:59.165Z,0
2017-02-08T07:51:12.281Z,0
2017-02-08T07:52:25.391Z,0
2017-02-08T07:53:38.497Z,0
2017-02-08T07:54:51.047Z,0
2017-02-08T07:56:04.453Z,0
2017-02-08T07:57:17.567Z,0
2017-02-08T07:58:30.118Z,0
2017-02-08T07:59:43.225Z,0
2017-02-08T08:00:55.974Z,0
2017-02-08T08:02:09.086Z,0
2017-02-08T08:03:22.196Z,0
2017-02-08T08:04:35.306Z,0
2017-02-08T08:05:47.853Z,0
2017-02-08T08:07:00.965Z,0
2017-02-08T08:08:14.072Z,0
2017-02-08T08:09:27.180Z,0
2017-02-08T08:10:40.287Z,0
2017-02-08T08:11:53.400Z,0
2017-02-08T08:13:06.510Z,0
2017-02-08T08:14:19.616Z,0
2017-02-08T08:15:32.724Z,0
2017-02-08T08:16:45.848Z,0
2017-02-08T08:17:58.957Z,0
2017-02-08T08:19:12.064Z,0
2017-02-08T08:20:25.302Z,0
2017-02-08T08:21:38.549Z,0
2017-02-08T08:23:05.782Z,0
2017-02-08T08:24:19.026Z,0
2017-02-08T08:25:32.271Z,0
2017-02-08T08:26:45.516Z,0
2017-02-08T08:27:58.762Z,0
2017-02-08T08:30:39.243Z,0
2017-02-08T08:31:52.493Z,0
2017-02-08T08:33:05.940Z,0
2017-02-08T08:34:19.188Z,0
2017-02-08T08:35:46.416Z,0
2017-02-08T08:36:59.661Z,0
2017-02-08T08:38:12.544Z,0
2017-02-08T08:39:25.793Z,0
2017-02-08T08:40:38.472Z,0
2017-02-08T08:41:51.721Z,0
2017-02-08T08:43:04.604Z,0
2017-02-08T08:44:17.280Z,0
2017-02-08T08:45:30.529Z,0
2017-02-08T08:46:43.204Z,0
2017-02-08T08:47:55.881Z,0
2017-02-08T08:49:09.335Z,0
2017-02-08T08:50:22.581Z,0
2017-02-08T08:51:35.828Z,0
2017-02-08T08:53:03.089Z,0
2017-02-08T08:54:15.968Z,0
2017-02-08T08:55:29.216Z,0
2017-02-08T08:56:42.463Z,0
2017-02-08T08:57:55.710Z,0
2017-02-08T08:59:09.158Z,0
2017-02-08T09:00:22.407Z,0
2017-02-08T09:01:35.655Z,0
2017-02-08T09:02:48.901Z,0
2017-02-08T09:04:02.174Z,0
2017-02-08T09:05:15.730Z,0
2017-02-08T09:06:28.413Z,0
2017-02-08T09:07:41.664Z,0
2017-02-08T09:08:54.913Z,0
2017-02-08T09:10:08.457Z,0
2017-02-08T09:11:21.138Z,0
2017-02-08T09:12:34.414Z,0
2017-02-08T09:13:47.660Z,0
2017-02-08T09:15:00.911Z,0
2017-02-08T09:16:14.172Z,0
2017-02-08T09:17:27.422Z,0
2017-02-08T09:18:40.669Z,0
2017-02-08T09:19:53.917Z,0
2017-02-08T09:21:07.365Z,5
2017-02-08T09:22:20.045Z,5
2017-02-08T09:23:47.277Z,5
2017-02-08T09:25:00.522Z,5
2017-02-08T09:26:13.969Z,5
2017-02-08T09:27:27.213Z,5
2017-02-08T09:28:40.464Z,5
2017-02-08T09:29:53.711Z,5
2017-02-08T09:31:06.963Z,5
2017-02-08T09:32:20.220Z,5
2017-02-08T09:33:33.463Z,5
2017-02-08T09:34:46.709Z,5
2017-02-08T09:35:59.956Z,5
2017-02-08T09:37:13.400Z,5
2017-02-08T09:38:26.648Z,5
2017-02-08T09:39:39.898Z,5
2017-02-08T09:40:53.147Z,5
2017-02-08T09:42:05.828Z,5
2017-02-08T09:43:19.075Z,5
2017-02-08T09:44:46.305Z,5
2017-02-08T09:45:59.555Z,5
2017-02-08T09:47:12.999Z,5
2017-02-08T09:48:26.245Z,5
2017-02-08T09:49:39.494Z,10
2017-02-08T09:50:52.612Z,5
2017-02-08T09:52:05.724Z,10
2017-02-08T09:53:32.284Z,10
2017-02-08T09:54:44.833Z,10
2017-02-08T09:55:57.942Z,10
2017-02-08T09:57:11.050Z,10
2017-02-08T09:58:24.159Z,10
2017-02-08T09:59:37.267Z,10
2017-02-08T10:00:50.381Z,10
2017-02-08T10:02:03.490Z,10
2017-02-08T10:03:16.602Z,10
2017-02-08T10:04:29.710Z,10
2017-02-08T10:05:42.820Z,10
2017-02-08T10:06:55.933Z,10
2017-02-08T10:08:09.043Z,15
2017-02-08T10:09:22.153Z,10
2017-02-08T10:10:35.262Z,10
2017-02-08T10:11:48.372Z,10
2017-02-08T10:13:01.482Z,10
2017-02-08T10:14:14.796Z,10
2017-02-08T10:15:27.909Z,15
2017-02-08T10:16:41.140Z,10
2017-02-08T10:17:53.131Z,10
2017-02-08T10:19:06.239Z,10
2017-02-08T10:20:33.357Z,10
2017-02-08T10:21:46.471Z,10
2017-02-08T10:22:59.578Z,10
2017-02-08T10:24:12.690Z,15
2017-02-08T10:25:26.005Z,10
2017-02-08T10:26:38.558Z,15
2017-02-08T10:27:50.547Z,15
2017-02-08T10:29:03.096Z,15
2017-02-08T10:30:16.404Z,15
2017-02-08T10:31:29.512Z,15
2017-02-08T10:32:42.619Z,15
2017-02-08T10:33:55.170Z,15
2017-02-08T10:35:08.281Z,15
2017-02-08T10:36:21.389Z,15
2017-02-08T10:37:34.506Z,20
2017-02-08T10:38:47.617Z,15
2017-02-08T10:40:00.726Z,10
2017-02-08T10:41:13.275Z,10
2017-02-08T10:42:26.382Z,10
2017-02-08T10:43:39.493Z,15
2017-02-08T10:44:52.598Z,15
2017-02-08T10:46:05.707Z,15
2017-02-08T10:47:18.816Z,15
2017-02-08T10:48:31.365Z,15
2017-02-08T10:49:44.473Z,20
2017-02-08T10:50:57.586Z,20
2017-02-08T10:52:10.704Z,25
2017-02-08T10:53:23.813Z,25
2017-02-08T10:54:36.922Z,25
2017-02-08T10:55:50.030Z,25
2017-02-08T10:57:17.455Z,25
2017-02-08T10:58:30.564Z,25
2017-02-08T10:59:57.684Z,30
2017-02-08T11:01:11.402Z,25
2017-02-08T11:02:38.544Z,25
2017-02-08T11:03:51.654Z,20
2017-02-08T11:05:18.774Z,15
2017-02-08T11:06:31.323Z,20
2017-02-08T11:07:44.745Z,15
2017-02-08T11:08:57.858Z,20
2017-02-08T11:10:10.410Z,20
2017-02-08T11:11:23.525Z,20
2017-02-08T11:12:36.935Z,20
2017-02-08T11:13:50.043Z,20
2017-02-08T11:15:02.035Z,20
2017-02-08T11:16:15.147Z,15
2017-02-08T11:17:28.254Z,20
2017-02-08T11:18:40.827Z,20
2017-02-08T11:19:53.423Z,20
2017-02-08T11:21:06.105Z,20
2017-02-08T11:22:19.357Z,20
2017-02-08T11:23:32.814Z,20
2017-02-08T11:24:46.065Z,20
2017-02-08T11:25:59.311Z,25
2017-02-08T11:27:12.565Z,20
2017-02-08T11:28:25.815Z,25
2017-02-08T11:29:39.066Z,30
2017-02-08T11:30:52.345Z,30
2017-02-08T11:32:05.041Z,35
2017-02-08T11:33:18.410Z,25
2017-02-08T11:34:31.676Z,25
2017-02-08T11:35:44.947Z,30
2017-02-08T11:36:58.203Z,25
2017-02-08T11:38:11.493Z,25
2017-02-08T11:39:44.658Z,25
2017-02-08T11:41:18.822Z,20
2017-02-08T11:44:13.390Z,20
2017-02-08T11:45:26.438Z,20
2017-02-08T11:46:39.296Z,20
2017-02-08T11:47:52.670Z,20
2017-02-08T11:49:05.495Z,20
2017-02-08T11:50:18.543Z,20
2017-02-08T11:51:31.791Z,20
2017-02-08T11:52:44.472Z,20
2017-02-08T11:53:57.723Z,25
2017-02-08T11:55:10.402Z,15
2017-02-08T11:56:23.957Z,20
2017-02-08T11:57:37.211Z,20
2017-02-08T11:58:50.460Z,20
2017-02-08T12:00:03.708Z,25
2017-02-08T12:01:16.586Z,25
2017-02-08T12:02:29.268Z,25
2017-02-08T12:03:42.532Z,25
2017-02-08T12:05:37.093Z,30
2017-02-08T12:06:50.356Z,30
2017-02-08T12:08:32.178Z,30
2017-02-08T12:09:44.864Z,25
2017-02-08T12:10:57.544Z,25
2017-02-08T12:12:10.792Z,30
2017-02-08T12:13:24.044Z,40
2017-02-08T12:14:37.293Z,40
2017-02-08T12:15:50.546Z,25
2017-02-08T12:17:03.994Z,25
2017-02-08T12:18:17.242Z,35
2017-02-08T12:19:30.494Z,35
2017-02-08T12:20:43.741Z,30
2017-02-08T12:21:56.990Z,30
2017-02-08T12:23:24.525Z,30
2017-02-08T12:24:37.772Z,30
2017-02-08T12:26:05.006Z,25
2017-02-08T12:27:18.254Z,35
2017-02-08T12:28:45.120Z,35
2017-02-08T12:29:58.368Z,35
2017-02-08T12:31:11.618Z,35
2017-02-08T12:32:24.297Z,35
2017-02-08T12:33:36.987Z,30
2017-02-08T12:34:50.238Z,30
2017-02-08T12:36:03.512Z,30
2017-02-08T12:37:16.796Z,35
2017-02-08T12:38:28.544Z,25
2017-02-08T12:39:41.820Z,35
2017-02-08T12:40:54.541Z,25
2017-02-08T12:42:07.260Z,25
2017-02-08T12:43:20.003Z,25
2017-02-08T12:44:32.797Z,50
2017-02-08T12:45:45.626Z,55
2017-02-08T12:46:58.510Z,55
2017-02-08T12:48:25.943Z,55
2017-02-08T12:49:39.646Z,55
2017-02-08T12:50:53.120Z,55
2017-02-08T12:52:06.668Z,60
2017-02-08T12:53:18.355Z,60
2017-02-08T12:54:45.791Z,60
2017-02-08T12:55:59.328Z,60
2017-02-08T12:57:12.783Z,65
2017-02-08T12:58:26.301Z,70
2017-02-08T12:59:39.732Z,70
2017-02-08T13:00:53.015Z,65
2017-02-08T13:02:05.699Z,75
2017-02-08T13:03:32.937Z,80
2017-02-08T13:04:46.195Z,80
2017-02-08T13:05:59.448Z,85
2017-02-08T13:07:12.141Z,85
2017-02-08T13:08:25.400Z,85
2017-02-08T13:09:38.662Z,65
2017-02-08T13:10:51.921Z,30
2017-02-08T13:12:05.174Z,30
2017-02-08T13:13:18.433Z,35
2017-02-08T13:14:31.687Z,55
2017-02-08T13:15:45.150Z,60
2017-02-08T13:16:58.425Z,40
2017-02-08T13:18:11.682Z,40
2017-02-08T13:19:24.370Z,40
2017-02-08T13:20:37.626Z,35
2017-02-08T13:21:50.878Z,80
2017-02-08T13:23:04.132Z,30
2017-02-08T13:24:16.825Z,30
2017-02-08T13:25:30.086Z,35
2017-02-08T13:26:43.593Z,40
2017-02-08T13:27:57.105Z,65
2017-02-08T13:29:24.619Z,40
2017-02-08T13:30:51.507Z,35
2017-02-08T13:32:04.981Z,30
2017-02-08T13:34:50.620Z,30
2017-02-08T13:36:03.913Z,35
2017-02-08T13:37:17.415Z,40
2017-02-08T13:38:30.696Z,100
2017-02-08T13:39:44.190Z,105
2017-02-08T13:40:57.541Z,100
2017-02-08T13:42:10.563Z,90
2017-02-08T13:43:23.888Z,90
2017-02-08T13:44:50.576Z,90
2017-02-08T13:46:03.848Z,90
2017-02-08T13:47:17.112Z,80
2017-02-08T13:48:29.825Z,95
2017-02-08T13:49:42.538Z,95
2017-02-08T13:52:23.262Z,100
2017-02-08T13:53:36.525Z,100
2017-02-08T13:55:02.646Z,100
2017-02-08T13:56:15.920Z,35
2017-02-08T13:57:29.387Z,35
2017-02-08T14:00:11.192Z,40
2017-02-08T14:01:24.481Z,45
2017-02-08T14:02:36.822Z,45
2017-02-08T14:03:50.095Z,45
2017-02-08T14:05:02.230Z,60
2017-02-08T14:07:41.902Z,45
2017-02-08T14:08:54.607Z,40
2017-02-08T14:10:07.908Z,40
2017-02-08T14:12:03.327Z,30
2017-02-08T14:13:16.656Z,30
2017-02-08T14:14:29.361Z,35
2017-02-08T14:15:42.463Z,30
2017-02-08T14:16:55.593Z,35
2017-02-08T14:18:07.357Z,35
2017-02-08T14:19:20.637Z,30
2017-02-08T14:20:34.200Z,35
2017-02-08T14:21:47.363Z,35
2017-02-08T14:23:00.507Z,50
2017-02-08T14:24:14.246Z,90
2017-02-08T14:27:08.546Z,70
2017-02-08T14:28:20.592Z,45
2017-02-08T14:29:47.753Z,90
2017-02-08T14:31:00.915Z,90
2017-02-08T14:36:13.329Z,85
2017-02-08T14:41:55.272Z,90
2017-02-08T14:43:08.483Z,75
2017-02-08T14:44:21.057Z,90
2017-02-08T14:45:34.182Z,90
2017-02-08T14:46:47.310Z,90
2017-02-08T14:48:00.431Z,85
2017-02-08T14:49:13.552Z,70
2017-02-08T14:50:26.706Z,85
2017-02-08T14:51:40.038Z,85
2017-02-08T14:52:53.159Z,85
2017-02-08T14:54:05.739Z,90
2017-02-08T14:56:45.445Z,90
2017-02-08T14:57:58.604Z,80
2017-02-08T14:59:10.606Z,40
2017-02-08T15:00:23.724Z,80
2017-02-08T15:01:51.059Z,80
2017-02-08T15:03:04.198Z,90
2017-02-08T15:04:30.769Z,85
2017-02-08T15:05:44.017Z,80
2017-02-08T15:06:57.280Z,85
2017-02-08T15:08:09.968Z,35
2017-02-08T15:09:23.222Z,75
2017-02-08T15:10:35.910Z,70
2017-02-08T15:11:48.034Z,70
2017-02-08T15:13:01.307Z,70
2017-02-08T15:14:14.562Z,65
2017-02-08T15:15:26.680Z,75
2017-02-08T15:16:39.938Z,35
2017-02-08T15:17:53.192Z,75
2017-02-08T15:19:06.453Z,75
2017-02-08T15:20:33.134Z,75
2017-02-08T15:21:46.390Z,75
2017-02-08T15:22:59.847Z,65
2017-02-08T15:24:12.533Z,70
2017-02-08T15:25:25.786Z,85
2017-02-08T15:26:39.052Z,65
2017-02-08T15:27:52.309Z,60
2017-02-08T15:29:05.564Z,80
2017-02-08T15:30:18.817Z,60
2017-02-08T15:31:32.081Z,55
2017-02-08T15:32:45.338Z,30
2017-02-08T15:34:12.580Z,30
2017-02-08T15:35:25.830Z,40
2017-02-08T15:36:39.094Z,70
2017-02-08T15:37:52.350Z,45
2017-02-08T15:39:05.053Z,40
2017-02-08T15:40:18.314Z,30
2017-02-08T15:41:31.570Z,30
2017-02-08T15:42:44.826Z,60
2017-02-08T15:43:58.085Z,60
2017-02-08T15:45:11.348Z,60
2017-02-08T15:46:24.035Z,70
2017-02-08T15:47:37.294Z,65
2017-02-08T15:48:50.548Z,70
2017-02-08T15:50:02.672Z,50
2017-02-08T15:51:15.943Z,70
2017-02-08T15:52:42.060Z,55
2017-02-08T15:53:55.337Z,60
2017-02-08T15:55:08.604Z,60
2017-02-08T15:56:21.900Z,60
2017-02-08T15:57:35.158Z,60
2017-02-08T15:58:48.420Z,50
2017-02-08T16:00:01.328Z,55
2017-02-08T16:01:14.604Z,45
2017-02-08T16:02:27.894Z,55
2017-02-08T16:03:40.593Z,55
2017-02-08T16:04:53.879Z,60
2017-02-08T16:06:07.344Z,55
2017-02-08T16:07:20.602Z,65
2017-02-08T16:08:33.860Z,55
2017-02-08T16:09:47.117Z,55
2017-02-08T16:11:00.584Z,50
2017-02-08T16:12:13.836Z,50
2017-02-08T16:13:27.143Z,50
2017-02-08T16:14:40.420Z,50
2017-02-08T16:16:07.959Z,50
2017-02-08T16:17:21.214Z,55
2017-02-08T16:18:34.485Z,35
2017-02-08T16:19:47.746Z,55
2017-02-08T16:21:01.020Z,45
2017-02-08T16:22:13.728Z,55
2017-02-08T16:23:26.999Z,30
2017-02-08T16:24:40.264Z,25
2017-02-08T16:25:53.524Z,45
2017-02-08T16:27:06.788Z,45
2017-02-08T16:28:19.476Z,40
2017-02-08T16:29:32.762Z,45
2017-02-08T16:30:46.182Z,45
2017-02-08T16:31:59.453Z,30
2017-02-08T16:33:12.702Z,40
2017-02-08T16:34:25.950Z,40
2017-02-08T16:35:39.082Z,30
2017-02-08T16:36:52.197Z,40
2017-02-08T16:38:19.325Z,40
2017-02-08T16:39:46.449Z,30
2017-02-08T16:41:13.577Z,50
2017-02-08T16:42:26.695Z,35
2017-02-08T16:43:39.806Z,30
2017-02-08T16:44:52.922Z,30
2017-02-08T16:46:06.045Z,45
2017-02-08T16:47:19.184Z,40
2017-02-08T16:48:31.944Z,50
2017-02-08T16:49:45.060Z,45
2017-02-08T16:50:58.175Z,35
2017-02-08T16:52:11.292Z,40
2017-02-08T16:53:24.415Z,40
2017-02-08T16:54:37.538Z,40
2017-02-08T16:55:50.658Z,40
2017-02-08T16:57:03.771Z,45
2017-02-08T16:58:16.891Z,45
2017-02-08T16:59:30.004Z,45
2017-02-08T17:00:43.116Z,40
2017-02-08T17:01:56.229Z,45
2017-02-08T17:03:09.344Z,50
2017-02-08T17:04:21.896Z,35
2017-02-08T17:05:35.015Z,45
2017-02-08T17:07:02.154Z,40
2017-02-08T17:08:14.707Z,35
2017-02-08T17:09:27.819Z,40
2017-02-08T17:10:41.128Z,35
2017-02-08T17:11:54.239Z,40
2017-02-08T17:13:07.357Z,40
2017-02-08T17:14:19.915Z,45
2017-02-08T17:17:00.453Z,45
2017-02-08T17:18:13.007Z,45
2017-02-08T17:19:25.563Z,40
2017-02-08T17:20:38.878Z,30
2017-02-08T17:21:51.993Z,30
2017-02-08T17:23:05.105Z,35
2017-02-08T17:24:17.658Z,40
2017-02-08T17:25:30.768Z,40
2017-02-08T17:26:43.880Z,45
2017-02-08T17:27:56.996Z,40
2017-02-08T17:29:10.108Z,40
2017-02-08T17:30:23.221Z,40
2017-02-08T17:31:36.532Z,40
2017-02-08T17:32:49.647Z,35
2017-02-08T17:34:02.757Z,40
2017-02-08T17:35:15.316Z,40
2017-02-08T17:36:27.871Z,35
2017-02-08T17:37:54.995Z,35
2017-02-08T17:40:34.676Z,35
2017-02-08T17:41:47.788Z,35
2017-02-08T17:43:00.900Z,35
2017-02-08T17:44:14.013Z,35
2017-02-08T17:45:26.566Z,35
2017-02-08T17:46:39.688Z,35
2017-02-08T17:47:52.802Z,35
2017-02-08T17:49:05.916Z,35
2017-02-08T17:50:18.470Z,40
2017-02-08T17:51:31.591Z,35
2017-02-08T17:52:44.709Z,35
2017-02-08T17:53:57.826Z,35
2017-02-08T17:55:24.948Z,35
2017-02-08T17:56:38.062Z,35
2017-02-08T17:57:52.015Z,35
2017-02-08T17:59:05.137Z,35
2017-02-08T18:00:18.250Z,35
2017-02-08T18:01:31.361Z,35
2017-02-08T18:02:44.473Z,35
2017-02-08T18:03:57.786Z,35
2017-02-08T18:05:11.028Z,40
2017-02-08T18:06:24.278Z,45
2017-02-08T18:07:37.531Z,50
2017-02-08T18:08:50.781Z,50
2017-02-08T18:10:04.552Z,40
2017-02-08T18:11:17.802Z,35
2017-02-08T18:12:31.060Z,25
2017-02-08T18:13:44.309Z,25
2017-02-08T18:15:10.978Z,25
2017-02-08T18:16:24.231Z,25
2017-02-08T18:17:37.485Z,30
2017-02-08T18:18:50.736Z,40
2017-02-08T18:20:04.011Z,45
2017-02-08T18:21:17.268Z,40
2017-02-08T18:22:30.525Z,35
2017-02-08T18:23:43.777Z,20